sensor_id;sensor_type;location;lat;lon;timestamp;temperature;humidity
23471;DHT22;11908;50.806;4.424;2023-06-10T00:01:24;22.40;99.90
23471;DHT22;11908;50.806;4.424;2023-06-10T00:03:50;22.30;99.90
23471;DHT22;11908;50.806;4.424;2023-06-10T00:06:17;22.20;99.90
23471;DHT22;11908;50.806;4.424;2023-06-10T00:08:43;22.10;99.90
23471;DHT22;11908;50.806;4.424;2023-06-10T00:11:09;22.00;99.90
23471;DHT22;11908;50.806;4.424;2023-06-10T00:13:35;22.10;99.90
23471;DHT22;11908;50.806;4.424;2023-06-10T00:16:01;22.00;99.90
23471;DHT22;11908;50.806;4.424;2023-06-10T00:18:27;21.90;99.90
23471;DHT22;11908;50.806;4.424;2023-06-10T00:20:53;22.00;99.90
23471;DHT22;11908;50.806;4.424;2023-06-10T00:23:21;21.90;99.90
23471;DHT22;11908;50.806;4.424;2023-06-10T00:25:46;21.90;99.90
23471;DHT22;11908;50.806;4.424;2023-06-10T00:28:12;21.90;99.90
23471;DHT22;11908;50.806;4.424;2023-06-10T00:30:38;21.90;99.90
23471;DHT22;11908;50.806;4.424;2023-06-10T00:33:04;21.80;99.90
23471;DHT22;11908;50.806;4.424;2023-06-10T00:35:30;21.80;99.90
23471;DHT22;11908;50.806;4.424;2023-06-10T00:37:55;21.80;99.90
23471;DHT22;11908;50.806;4.424;2023-06-10T00:40:21;21.80;99.90
23471;DHT22;11908;50.806;4.424;2023-06-10T00:42:47;21.90;99.90
23471;DHT22;11908;50.806;4.424;2023-06-10T00:45:12;21.80;99.90
23471;DHT22;11908;50.806;4.424;2023-06-10T00:47:38;21.70;99.90
23471;DHT22;11908;50.806;4.424;2023-06-10T00:50:05;21.70;99.90
23471;DHT22;11908;50.806;4.424;2023-06-10T00:52:31;21.70;99.90
23471;DHT22;11908;50.806;4.424;2023-06-10T00:54:59;21.70;99.90
23471;DHT22;11908;50.806;4.424;2023-06-10T00:57:25;21.70;99.90
23471;DHT22;11908;50.806;4.424;2023-06-10T00:59:52;21.70;99.90
23471;DHT22;11908;50.806;4.424;2023-06-10T01:02:17;21.70;99.90
23471;DHT22;11908;50.806;4.424;2023-06-10T01:04:43;21.60;99.90
23471;DHT22;11908;50.806;4.424;2023-06-10T01:10:05;21.50;99.90
23471;DHT22;11908;50.806;4.424;2023-06-10T01:12:45;21.60;99.90
23471;DHT22;11908;50.806;4.424;2023-06-10T01:15:15;21.50;99.90
23471;DHT22;11908;50.806;4.424;2023-06-10T01:18:01;21.50;99.90
23471;DHT22;11908;50.806;4.424;2023-06-10T01:20:29;21.50;99.90
23471;DHT22;11908;50.806;4.424;2023-06-10T01:22:59;21.50;99.90
23471;DHT22;11908;50.806;4.424;2023-06-10T01:25:26;21.50;99.90
23471;DHT22;11908;50.806;4.424;2023-06-10T01:31:23;21.40;99.90
23471;DHT22;11908;50.806;4.424;2023-06-10T01:33:52;21.40;99.90
23471;DHT22;11908;50.806;4.424;2023-06-10T01:36:19;21.40;99.90
23471;DHT22;11908;50.806;4.424;2023-06-10T01:38:47;21.40;99.90
23471;DHT22;11908;50.806;4.424;2023-06-10T01:41:15;21.40;99.90
23471;DHT22;11908;50.806;4.424;2023-06-10T01:43:43;21.30;99.90
23471;DHT22;11908;50.806;4.424;2023-06-10T01:46:09;21.30;99.90
23471;DHT22;11908;50.806;4.424;2023-06-10T01:48:35;21.30;99.90
23471;DHT22;11908;50.806;4.424;2023-06-10T01:51:00;21.20;99.90
23471;DHT22;11908;50.806;4.424;2023-06-10T01:53:26;21.20;99.90
23471;DHT22;11908;50.806;4.424;2023-06-10T01:55:52;21.10;99.90
23471;DHT22;11908;50.806;4.424;2023-06-10T01:58:17;21.10;99.90
23471;DHT22;11908;50.806;4.424;2023-06-10T02:00:43;21.10;99.90
23471;DHT22;11908;50.806;4.424;2023-06-10T02:03:09;21.10;99.90
23471;DHT22;11908;50.806;4.424;2023-06-10T02:05:35;21.00;99.90
23471;DHT22;11908;50.806;4.424;2023-06-10T02:08:00;21.00;99.90
23471;DHT22;11908;50.806;4.424;2023-06-10T02:10:26;20.90;99.90
23471;DHT22;11908;50.806;4.424;2023-06-10T02:12:52;20.90;99.90
23471;DHT22;11908;50.806;4.424;2023-06-10T02:15:18;20.90;99.90
23471;DHT22;11908;50.806;4.424;2023-06-10T02:17:43;20.90;99.90
23471;DHT22;11908;50.806;4.424;2023-06-10T02:20:10;20.90;99.90
23471;DHT22;11908;50.806;4.424;2023-06-10T02:22:36;20.80;99.90
23471;DHT22;11908;50.806;4.424;2023-06-10T02:25:02;20.80;99.90
23471;DHT22;11908;50.806;4.424;2023-06-10T02:27:29;20.80;99.90
23471;DHT22;11908;50.806;4.424;2023-06-10T02:29:56;20.70;99.90
23471;DHT22;11908;50.806;4.424;2023-06-10T02:32:22;20.60;99.90
23471;DHT22;11908;50.806;4.424;2023-06-10T02:34:48;20.50;99.90
23471;DHT22;11908;50.806;4.424;2023-06-10T02:37:15;20.50;99.90
23471;DHT22;11908;50.806;4.424;2023-06-10T02:39:41;20.50;99.90
23471;DHT22;11908;50.806;4.424;2023-06-10T02:42:07;20.50;99.90
23471;DHT22;11908;50.806;4.424;2023-06-10T02:44:33;20.50;99.90
23471;DHT22;11908;50.806;4.424;2023-06-10T02:46:59;20.50;99.90
23471;DHT22;11908;50.806;4.424;2023-06-10T02:49:25;20.40;99.90
23471;DHT22;11908;50.806;4.424;2023-06-10T02:51:53;20.40;99.90
23471;DHT22;11908;50.806;4.424;2023-06-10T02:54:20;20.40;99.90
23471;DHT22;11908;50.806;4.424;2023-06-10T02:56:45;20.40;99.90
23471;DHT22;11908;50.806;4.424;2023-06-10T02:59:13;20.40;99.90
23471;DHT22;11908;50.806;4.424;2023-06-10T03:01:39;20.30;99.90
23471;DHT22;11908;50.806;4.424;2023-06-10T03:04:06;20.30;99.90
23471;DHT22;11908;50.806;4.424;2023-06-10T03:06:32;20.30;99.90
23471;DHT22;11908;50.806;4.424;2023-06-10T03:09:02;20.10;99.90
23471;DHT22;11908;50.806;4.424;2023-06-10T03:11:33;20.00;99.90
23471;DHT22;11908;50.806;4.424;2023-06-10T03:13:58;20.00;99.90
23471;DHT22;11908;50.806;4.424;2023-06-10T03:16:24;20.00;99.90
23471;DHT22;11908;50.806;4.424;2023-06-10T03:18:53;20.00;99.90
23471;DHT22;11908;50.806;4.424;2023-06-10T03:21:19;20.00;99.90
23471;DHT22;11908;50.806;4.424;2023-06-10T03:23:45;20.00;99.90
23471;DHT22;11908;50.806;4.424;2023-06-10T03:26:11;19.90;99.90
23471;DHT22;11908;50.806;4.424;2023-06-10T03:28:37;20.00;99.90
23471;DHT22;11908;50.806;4.424;2023-06-10T03:31:03;20.00;99.90
23471;DHT22;11908;50.806;4.424;2023-06-10T03:33:29;20.00;99.90
23471;DHT22;11908;50.806;4.424;2023-06-10T03:35:55;20.00;99.90
23471;DHT22;11908;50.806;4.424;2023-06-10T03:38:21;20.00;99.90
23471;DHT22;11908;50.806;4.424;2023-06-10T03:40:47;20.00;99.90
23471;DHT22;11908;50.806;4.424;2023-06-10T03:43:12;20.00;99.90
23471;DHT22;11908;50.806;4.424;2023-06-10T03:45:38;19.90;99.90
23471;DHT22;11908;50.806;4.424;2023-06-10T03:48:04;20.00;99.90
23471;DHT22;11908;50.806;4.424;2023-06-10T03:50:31;20.00;99.90
23471;DHT22;11908;50.806;4.424;2023-06-10T03:52:57;20.00;99.90
23471;DHT22;11908;50.806;4.424;2023-06-10T03:55:23;20.00;99.90
23471;DHT22;11908;50.806;4.424;2023-06-10T03:57:49;20.00;99.90
23471;DHT22;11908;50.806;4.424;2023-06-10T04:00:16;20.10;99.90
23471;DHT22;11908;50.806;4.424;2023-06-10T04:02:43;20.10;99.90
23471;DHT22;11908;50.806;4.424;2023-06-10T04:05:18;20.10;99.90
23471;DHT22;11908;50.806;4.424;2023-06-10T04:07:43;20.20;99.90
23471;DHT22;11908;50.806;4.424;2023-06-10T04:10:10;20.20;99.90
23471;DHT22;11908;50.806;4.424;2023-06-10T04:12:37;20.30;99.90
23471;DHT22;11908;50.806;4.424;2023-06-10T04:15:04;20.30;99.90
23471;DHT22;11908;50.806;4.424;2023-06-10T04:17:30;20.30;99.90
23471;DHT22;11908;50.806;4.424;2023-06-10T04:19:57;20.40;99.90
23471;DHT22;11908;50.806;4.424;2023-06-10T04:22:23;20.50;99.90
23471;DHT22;11908;50.806;4.424;2023-06-10T04:24:49;20.60;99.90
23471;DHT22;11908;50.806;4.424;2023-06-10T04:27:15;20.50;99.90
23471;DHT22;11908;50.806;4.424;2023-06-10T04:29:41;20.70;99.90
23471;DHT22;11908;50.806;4.424;2023-06-10T04:32:07;21.30;99.90
23471;DHT22;11908;50.806;4.424;2023-06-10T04:34:33;22.10;99.90
23471;DHT22;11908;50.806;4.424;2023-06-10T04:36:59;23.20;99.90
23471;DHT22;11908;50.806;4.424;2023-06-10T04:39:25;24.20;99.90
23471;DHT22;11908;50.806;4.424;2023-06-10T04:41:51;25.20;99.90
23471;DHT22;11908;50.806;4.424;2023-06-10T04:44:17;26.00;99.90
23471;DHT22;11908;50.806;4.424;2023-06-10T04:46:42;26.80;99.90
23471;DHT22;11908;50.806;4.424;2023-06-10T04:49:08;27.50;99.90
23471;DHT22;11908;50.806;4.424;2023-06-10T04:51:34;28.10;99.90
23471;DHT22;11908;50.806;4.424;2023-06-10T04:54:00;28.60;99.90
23471;DHT22;11908;50.806;4.424;2023-06-10T04:56:29;28.90;99.90
23471;DHT22;11908;50.806;4.424;2023-06-10T04:58:56;29.40;99.90
23471;DHT22;11908;50.806;4.424;2023-06-10T05:01:22;29.80;99.90
23471;DHT22;11908;50.806;4.424;2023-06-10T05:03:48;30.20;99.90
23471;DHT22;11908;50.806;4.424;2023-06-10T05:06:14;30.80;99.90
23471;DHT22;11908;50.806;4.424;2023-06-10T05:08:39;31.10;99.90
23471;DHT22;11908;50.806;4.424;2023-06-10T05:11:05;31.50;99.90
23471;DHT22;11908;50.806;4.424;2023-06-10T05:13:31;31.90;99.90
23471;DHT22;11908;50.806;4.424;2023-06-10T05:15:58;31.90;99.40
23471;DHT22;11908;50.806;4.424;2023-06-10T05:18:23;31.80;99.40
23471;DHT22;11908;50.806;4.424;2023-06-10T05:20:50;31.50;99.10
23471;DHT22;11908;50.806;4.424;2023-06-10T05:23:15;32.10;98.60
23471;DHT22;11908;50.806;4.424;2023-06-10T05:25:41;32.40;98.00
23471;DHT22;11908;50.806;4.424;2023-06-10T05:28:08;32.50;96.40
23471;DHT22;11908;50.806;4.424;2023-06-10T05:30:36;33.00;96.00
23471;DHT22;11908;50.806;4.424;2023-06-10T05:33:02;33.50;96.00
23471;DHT22;11908;50.806;4.424;2023-06-10T05:35:28;34.20;94.10
23471;DHT22;11908;50.806;4.424;2023-06-10T05:37:54;34.80;93.40
23471;DHT22;11908;50.806;4.424;2023-06-10T05:40:20;34.60;92.20
23471;DHT22;11908;50.806;4.424;2023-06-10T05:42:45;34.00;92.60
23471;DHT22;11908;50.806;4.424;2023-06-10T05:45:11;33.30;92.40
23471;DHT22;11908;50.806;4.424;2023-06-10T05:47:36;33.10;92.70
23471;DHT22;11908;50.806;4.424;2023-06-10T05:50:02;33.40;93.20
23471;DHT22;11908;50.806;4.424;2023-06-10T05:52:33;33.30;93.30
23471;DHT22;11908;50.806;4.424;2023-06-10T05:54:59;33.80;92.40
23471;DHT22;11908;50.806;4.424;2023-06-10T05:57:25;34.00;91.50
23471;DHT22;11908;50.806;4.424;2023-06-10T05:59:51;34.80;91.50
23471;DHT22;11908;50.806;4.424;2023-06-10T06:02:17;34.90;90.50
23471;DHT22;11908;50.806;4.424;2023-06-10T06:04:43;35.40;90.70
23471;DHT22;11908;50.806;4.424;2023-06-10T06:07:08;35.80;87.10
23471;DHT22;11908;50.806;4.424;2023-06-10T06:09:34;35.40;85.60
23471;DHT22;11908;50.806;4.424;2023-06-10T06:12:00;35.80;86.50
23471;DHT22;11908;50.806;4.424;2023-06-10T06:14:25;35.80;82.70
23471;DHT22;11908;50.806;4.424;2023-06-10T06:16:51;34.60;87.00
23471;DHT22;11908;50.806;4.424;2023-06-10T06:19:17;33.80;87.30
23471;DHT22;11908;50.806;4.424;2023-06-10T06:21:42;33.60;90.20
23471;DHT22;11908;50.806;4.424;2023-06-10T06:24:08;33.80;89.00
23471;DHT22;11908;50.806;4.424;2023-06-10T06:26:34;34.30;87.10
23471;DHT22;11908;50.806;4.424;2023-06-10T06:28:59;33.50;88.20
23471;DHT22;11908;50.806;4.424;2023-06-10T06:31:25;32.70;89.60
23471;DHT22;11908;50.806;4.424;2023-06-10T06:33:51;32.70;90.20
23471;DHT22;11908;50.806;4.424;2023-06-10T06:36:16;33.30;89.80
23471;DHT22;11908;50.806;4.424;2023-06-10T06:38:42;33.10;88.30
23471;DHT22;11908;50.806;4.424;2023-06-10T06:41:08;33.70;89.20
23471;DHT22;11908;50.806;4.424;2023-06-10T06:43:34;33.40;88.10
23471;DHT22;11908;50.806;4.424;2023-06-10T06:45:59;33.20;91.10
23471;DHT22;11908;50.806;4.424;2023-06-10T06:48:25;33.60;90.10
23471;DHT22;11908;50.806;4.424;2023-06-10T06:50:51;33.30;90.20
23471;DHT22;11908;50.806;4.424;2023-06-10T06:53:16;33.10;88.90
23471;DHT22;11908;50.806;4.424;2023-06-10T06:55:42;32.60;90.00
23471;DHT22;11908;50.806;4.424;2023-06-10T06:58:08;32.50;91.80
23471;DHT22;11908;50.806;4.424;2023-06-10T07:00:33;32.90;90.70
23471;DHT22;11908;50.806;4.424;2023-06-10T07:02:59;34.20;90.30
23471;DHT22;11908;50.806;4.424;2023-06-10T07:05:25;34.30;85.70
23471;DHT22;11908;50.806;4.424;2023-06-10T07:07:53;34.60;87.90
23471;DHT22;11908;50.806;4.424;2023-06-10T07:10:24;35.20;87.10
23471;DHT22;11908;50.806;4.424;2023-06-10T07:12:50;35.30;85.90
23471;DHT22;11908;50.806;4.424;2023-06-10T07:15:16;32.50;87.80
23471;DHT22;11908;50.806;4.424;2023-06-10T07:17:42;31.40;91.20
23471;DHT22;11908;50.806;4.424;2023-06-10T07:20:08;31.40;90.80
23471;DHT22;11908;50.806;4.424;2023-06-10T07:22:34;31.20;91.70
23471;DHT22;11908;50.806;4.424;2023-06-10T07:25:00;31.60;91.90
23471;DHT22;11908;50.806;4.424;2023-06-10T07:27:25;31.90;91.20
23471;DHT22;11908;50.806;4.424;2023-06-10T07:29:51;32.90;90.50
23471;DHT22;11908;50.806;4.424;2023-06-10T07:32:18;33.90;90.30
23471;DHT22;11908;50.806;4.424;2023-06-10T07:34:46;34.60;85.80
23471;DHT22;11908;50.806;4.424;2023-06-10T07:37:11;33.90;88.30
23471;DHT22;11908;50.806;4.424;2023-06-10T07:39:37;33.30;90.00
23471;DHT22;11908;50.806;4.424;2023-06-10T07:42:03;34.10;89.00
23471;DHT22;11908;50.806;4.424;2023-06-10T07:44:28;34.80;87.20
23471;DHT22;11908;50.806;4.424;2023-06-10T07:46:54;35.50;85.70
23471;DHT22;11908;50.806;4.424;2023-06-10T07:49:20;36.70;82.60
23471;DHT22;11908;50.806;4.424;2023-06-10T07:51:45;37.60;79.90
23471;DHT22;11908;50.806;4.424;2023-06-10T07:54:11;37.00;81.90
23471;DHT22;11908;50.806;4.424;2023-06-10T07:56:38;37.10;79.80
23471;DHT22;11908;50.806;4.424;2023-06-10T07:59:03;36.40;80.20
23471;DHT22;11908;50.806;4.424;2023-06-10T08:01:29;36.90;78.60
23471;DHT22;11908;50.806;4.424;2023-06-10T08:03:55;37.50;76.10
23471;DHT22;11908;50.806;4.424;2023-06-10T08:06:21;38.00;77.00
23471;DHT22;11908;50.806;4.424;2023-06-10T08:08:47;37.20;76.90
23471;DHT22;11908;50.806;4.424;2023-06-10T08:11:13;37.50;76.80
23471;DHT22;11908;50.806;4.424;2023-06-10T08:13:38;36.20;76.70
23471;DHT22;11908;50.806;4.424;2023-06-10T08:16:05;33.90;80.00
23471;DHT22;11908;50.806;4.424;2023-06-10T08:18:31;32.70;85.70
23471;DHT22;11908;50.806;4.424;2023-06-10T08:20:57;33.20;85.10
23471;DHT22;11908;50.806;4.424;2023-06-10T08:23:23;34.00;84.10
23471;DHT22;11908;50.806;4.424;2023-06-10T08:25:48;34.50;83.00
23471;DHT22;11908;50.806;4.424;2023-06-10T08:28:14;33.30;82.10
23471;DHT22;11908;50.806;4.424;2023-06-10T08:30:40;33.00;84.10
23471;DHT22;11908;50.806;4.424;2023-06-10T08:33:05;32.50;88.70
23471;DHT22;11908;50.806;4.424;2023-06-10T08:35:31;33.10;84.60
23471;DHT22;11908;50.806;4.424;2023-06-10T08:37:57;33.60;87.40
23471;DHT22;11908;50.806;4.424;2023-06-10T08:40:23;34.70;83.30
23471;DHT22;11908;50.806;4.424;2023-06-10T08:42:58;33.90;82.80
23471;DHT22;11908;50.806;4.424;2023-06-10T08:45:29;34.50;85.00
23471;DHT22;11908;50.806;4.424;2023-06-10T08:47:57;34.70;81.20
23471;DHT22;11908;50.806;4.424;2023-06-10T08:50:25;33.40;83.50
23471;DHT22;11908;50.806;4.424;2023-06-10T08:52:54;33.80;84.50
23471;DHT22;11908;50.806;4.424;2023-06-10T08:58:01;36.60;79.10
23471;DHT22;11908;50.806;4.424;2023-06-10T09:00:28;36.10;77.50
23471;DHT22;11908;50.806;4.424;2023-06-10T09:02:55;35.50;81.50
23471;DHT22;11908;50.806;4.424;2023-06-10T09:05:21;35.90;78.90
23471;DHT22;11908;50.806;4.424;2023-06-10T09:07:52;36.90;77.70
23471;DHT22;11908;50.806;4.424;2023-06-10T09:10:18;37.50;78.90
23471;DHT22;11908;50.806;4.424;2023-06-10T09:12:44;38.20;74.80
23471;DHT22;11908;50.806;4.424;2023-06-10T09:15:10;37.90;74.70
23471;DHT22;11908;50.806;4.424;2023-06-10T09:17:38;37.60;75.40
23471;DHT22;11908;50.806;4.424;2023-06-10T09:20:09;37.40;74.90
23471;DHT22;11908;50.806;4.424;2023-06-10T09:22:35;36.20;76.50
23471;DHT22;11908;50.806;4.424;2023-06-10T09:25:06;37.40;77.80
23471;DHT22;11908;50.806;4.424;2023-06-10T09:27:44;39.00;74.90
23471;DHT22;11908;50.806;4.424;2023-06-10T09:30:24;39.20;72.30
23471;DHT22;11908;50.806;4.424;2023-06-10T09:32:53;37.90;71.10
23471;DHT22;11908;50.806;4.424;2023-06-10T09:35:18;37.70;72.30
23471;DHT22;11908;50.806;4.424;2023-06-10T09:37:44;38.10;74.20
23471;DHT22;11908;50.806;4.424;2023-06-10T09:40:11;39.40;70.00
23471;DHT22;11908;50.806;4.424;2023-06-10T09:42:39;38.00;71.40
23471;DHT22;11908;50.806;4.424;2023-06-10T09:45:06;37.20;72.70
23471;DHT22;11908;50.806;4.424;2023-06-10T09:47:32;35.80;72.70
23471;DHT22;11908;50.806;4.424;2023-06-10T09:49:58;34.50;74.10
23471;DHT22;11908;50.806;4.424;2023-06-10T09:52:25;34.10;76.90
23471;DHT22;11908;50.806;4.424;2023-06-10T09:54:52;34.30;79.10
23471;DHT22;11908;50.806;4.424;2023-06-10T09:57:21;35.30;77.40
23471;DHT22;11908;50.806;4.424;2023-06-10T09:59:47;36.00;72.80
23471;DHT22;11908;50.806;4.424;2023-06-10T10:02:16;35.90;76.40
23471;DHT22;11908;50.806;4.424;2023-06-10T10:04:43;36.30;72.70
23471;DHT22;11908;50.806;4.424;2023-06-10T10:07:10;35.80;73.50
23471;DHT22;11908;50.806;4.424;2023-06-10T10:09:37;35.70;72.80
23471;DHT22;11908;50.806;4.424;2023-06-10T10:12:10;37.00;71.60
23471;DHT22;11908;50.806;4.424;2023-06-10T10:14:37;38.00;68.30
23471;DHT22;11908;50.806;4.424;2023-06-10T10:17:10;37.40;70.30
23471;DHT22;11908;50.806;4.424;2023-06-10T10:19:53;36.50;69.00
23471;DHT22;11908;50.806;4.424;2023-06-10T10:22:40;35.90;71.60
23471;DHT22;11908;50.806;4.424;2023-06-10T10:25:27;36.10;68.50
23471;DHT22;11908;50.806;4.424;2023-06-10T10:28:10;36.50;67.90
23471;DHT22;11908;50.806;4.424;2023-06-10T10:30:58;37.60;69.40
23471;DHT22;11908;50.806;4.424;2023-06-10T10:36:06;38.10;66.40
23471;DHT22;11908;50.806;4.424;2023-06-10T10:38:33;37.50;66.90
23471;DHT22;11908;50.806;4.424;2023-06-10T10:41:00;36.40;68.40
23471;DHT22;11908;50.806;4.424;2023-06-10T10:43:28;36.30;69.10
23471;DHT22;11908;50.806;4.424;2023-06-10T10:46:00;37.20;65.80
23471;DHT22;11908;50.806;4.424;2023-06-10T10:48:32;37.90;64.10
23471;DHT22;11908;50.806;4.424;2023-06-10T10:50:58;38.30;65.30
23471;DHT22;11908;50.806;4.424;2023-06-10T10:53:24;38.70;62.70
23471;DHT22;11908;50.806;4.424;2023-06-10T10:56:15;38.20;61.90
23471;DHT22;11908;50.806;4.424;2023-06-10T10:58:41;37.90;64.20
23471;DHT22;11908;50.806;4.424;2023-06-10T11:01:14;37.30;62.50
23471;DHT22;11908;50.806;4.424;2023-06-10T11:03:46;36.10;62.10
23471;DHT22;11908;50.806;4.424;2023-06-10T11:06:16;35.60;64.60
23471;DHT22;11908;50.806;4.424;2023-06-10T11:11:22;36.20;63.80
23471;DHT22;11908;50.806;4.424;2023-06-10T11:16:39;36.50;64.00
23471;DHT22;11908;50.806;4.424;2023-06-10T11:19:06;35.50;65.10
23471;DHT22;11908;50.806;4.424;2023-06-10T11:21:31;35.30;64.00
23471;DHT22;11908;50.806;4.424;2023-06-10T11:24:12;35.40;61.90
23471;DHT22;11908;50.806;4.424;2023-06-10T11:26:44;36.30;62.40
23471;DHT22;11908;50.806;4.424;2023-06-10T11:29:09;36.80;62.50
23471;DHT22;11908;50.806;4.424;2023-06-10T11:31:40;37.50;61.20
23471;DHT22;11908;50.806;4.424;2023-06-10T11:34:07;37.50;61.70
23471;DHT22;11908;50.806;4.424;2023-06-10T11:36:43;37.60;60.10
23471;DHT22;11908;50.806;4.424;2023-06-10T11:39:11;34.50;62.90
23471;DHT22;11908;50.806;4.424;2023-06-10T11:41:38;34.10;64.40
23471;DHT22;11908;50.806;4.424;2023-06-10T11:44:08;33.90;64.40
23471;DHT22;11908;50.806;4.424;2023-06-10T11:46:34;34.20;62.00
23471;DHT22;11908;50.806;4.424;2023-06-10T11:49:01;34.20;62.70
23471;DHT22;11908;50.806;4.424;2023-06-10T11:51:31;33.90;63.70
23471;DHT22;11908;50.806;4.424;2023-06-10T11:53:57;34.30;64.30
23471;DHT22;11908;50.806;4.424;2023-06-10T11:56:25;34.30;63.30
23471;DHT22;11908;50.806;4.424;2023-06-10T11:59:01;34.10;63.90
23471;DHT22;11908;50.806;4.424;2023-06-10T12:01:31;33.70;63.90
23471;DHT22;11908;50.806;4.424;2023-06-10T12:04:08;33.00;64.50
23471;DHT22;11908;50.806;4.424;2023-06-10T12:06:43;33.40;68.30
23471;DHT22;11908;50.806;4.424;2023-06-10T12:09:20;34.30;65.30
23471;DHT22;11908;50.806;4.424;2023-06-10T12:11:49;34.80;66.90
23471;DHT22;11908;50.806;4.424;2023-06-10T12:14:16;34.90;65.80
23471;DHT22;11908;50.806;4.424;2023-06-10T12:17:02;35.40;63.90
23471;DHT22;11908;50.806;4.424;2023-06-10T12:19:28;36.20;64.60
23471;DHT22;11908;50.806;4.424;2023-06-10T12:21:53;36.00;63.80
23471;DHT22;11908;50.806;4.424;2023-06-10T12:24:19;35.80;64.40
23471;DHT22;11908;50.806;4.424;2023-06-10T12:26:45;35.50;65.40
23471;DHT22;11908;50.806;4.424;2023-06-10T12:29:18;35.20;64.60
23471;DHT22;11908;50.806;4.424;2023-06-10T12:34:19;34.70;63.90
23471;DHT22;11908;50.806;4.424;2023-06-10T12:36:49;35.00;65.80
23471;DHT22;11908;50.806;4.424;2023-06-10T12:39:15;35.20;65.80
23471;DHT22;11908;50.806;4.424;2023-06-10T12:41:46;35.80;65.90
23471;DHT22;11908;50.806;4.424;2023-06-10T12:44:12;35.60;63.90
23471;DHT22;11908;50.806;4.424;2023-06-10T12:46:37;34.90;64.60
23471;DHT22;11908;50.806;4.424;2023-06-10T12:49:03;33.60;63.90
23471;DHT22;11908;50.806;4.424;2023-06-10T12:51:29;32.80;65.60
23471;DHT22;11908;50.806;4.424;2023-06-10T12:53:55;33.00;69.20
23471;DHT22;11908;50.806;4.424;2023-06-10T12:56:20;33.70;67.90
23471;DHT22;11908;50.806;4.424;2023-06-10T12:58:47;33.90;67.20
23471;DHT22;11908;50.806;4.424;2023-06-10T13:01:13;33.50;65.60
23471;DHT22;11908;50.806;4.424;2023-06-10T13:03:39;33.60;66.10
23471;DHT22;11908;50.806;4.424;2023-06-10T13:06:06;33.40;67.60
23471;DHT22;11908;50.806;4.424;2023-06-10T13:08:32;33.00;67.50
23471;DHT22;11908;50.806;4.424;2023-06-10T13:10:58;32.70;68.00
23471;DHT22;11908;50.806;4.424;2023-06-10T13:13:24;32.40;68.70
23471;DHT22;11908;50.806;4.424;2023-06-10T13:15:50;32.10;69.20
23471;DHT22;11908;50.806;4.424;2023-06-10T13:18:15;32.00;72.00
23471;DHT22;11908;50.806;4.424;2023-06-10T13:20:44;32.40;71.30
23471;DHT22;11908;50.806;4.424;2023-06-10T13:23:10;32.50;69.60
23471;DHT22;11908;50.806;4.424;2023-06-10T13:25:35;32.40;69.00
23471;DHT22;11908;50.806;4.424;2023-06-10T13:28:01;32.80;69.50
23471;DHT22;11908;50.806;4.424;2023-06-10T13:30:28;32.30;68.00
23471;DHT22;11908;50.806;4.424;2023-06-10T13:32:54;32.30;67.90
23471;DHT22;11908;50.806;4.424;2023-06-10T13:35:19;32.30;68.30
23471;DHT22;11908;50.806;4.424;2023-06-10T13:37:45;31.90;67.50
23471;DHT22;11908;50.806;4.424;2023-06-10T13:40:11;32.00;69.60
23471;DHT22;11908;50.806;4.424;2023-06-10T13:42:37;31.90;69.10
23471;DHT22;11908;50.806;4.424;2023-06-10T13:45:04;31.90;70.20
23471;DHT22;11908;50.806;4.424;2023-06-10T13:47:30;31.90;68.80
23471;DHT22;11908;50.806;4.424;2023-06-10T13:49:56;31.40;69.70
23471;DHT22;11908;50.806;4.424;2023-06-10T13:52:21;31.50;70.40
23471;DHT22;11908;50.806;4.424;2023-06-10T13:54:47;31.90;70.00
23471;DHT22;11908;50.806;4.424;2023-06-10T13:57:12;32.30;68.90
23471;DHT22;11908;50.806;4.424;2023-06-10T13:59:38;32.00;68.20
23471;DHT22;11908;50.806;4.424;2023-06-10T14:02:04;31.60;70.10
23471;DHT22;11908;50.806;4.424;2023-06-10T14:04:30;31.60;69.20
23471;DHT22;11908;50.806;4.424;2023-06-10T14:06:56;31.50;69.40
23471;DHT22;11908;50.806;4.424;2023-06-10T14:09:22;31.40;69.00
23471;DHT22;11908;50.806;4.424;2023-06-10T14:11:48;31.30;71.00
23471;DHT22;11908;50.806;4.424;2023-06-10T14:14:14;31.60;70.50
23471;DHT22;11908;50.806;4.424;2023-06-10T14:16:40;32.00;68.00
23471;DHT22;11908;50.806;4.424;2023-06-10T14:19:06;32.10;68.90
23471;DHT22;11908;50.806;4.424;2023-06-10T14:21:31;32.00;70.70
23471;DHT22;11908;50.806;4.424;2023-06-10T14:23:57;32.30;70.10
23471;DHT22;11908;50.806;4.424;2023-06-10T14:26:23;32.20;68.50
23471;DHT22;11908;50.806;4.424;2023-06-10T14:28:50;32.00;68.00
23471;DHT22;11908;50.806;4.424;2023-06-10T14:31:16;31.70;68.60
23471;DHT22;11908;50.806;4.424;2023-06-10T14:33:42;31.70;70.40
23471;DHT22;11908;50.806;4.424;2023-06-10T14:36:09;31.70;69.70
23471;DHT22;11908;50.806;4.424;2023-06-10T14:38:35;31.70;68.90
23471;DHT22;11908;50.806;4.424;2023-06-10T14:41:01;31.80;69.60
23471;DHT22;11908;50.806;4.424;2023-06-10T14:43:27;31.80;69.60
23471;DHT22;11908;50.806;4.424;2023-06-10T14:45:53;31.30;70.90
23471;DHT22;11908;50.806;4.424;2023-06-10T14:48:20;31.20;69.70
23471;DHT22;11908;50.806;4.424;2023-06-10T14:50:46;31.20;68.80
23471;DHT22;11908;50.806;4.424;2023-06-10T14:53:19;31.30;70.00
23471;DHT22;11908;50.806;4.424;2023-06-10T14:55:44;31.60;68.30
23471;DHT22;11908;50.806;4.424;2023-06-10T14:58:10;31.70;71.70
23471;DHT22;11908;50.806;4.424;2023-06-10T15:00:36;31.80;69.30
23471;DHT22;11908;50.806;4.424;2023-06-10T15:03:01;31.80;68.60
23471;DHT22;11908;50.806;4.424;2023-06-10T15:05:28;31.20;67.80
23471;DHT22;11908;50.806;4.424;2023-06-10T15:07:53;31.10;70.30
23471;DHT22;11908;50.806;4.424;2023-06-10T15:10:19;31.10;69.70
23471;DHT22;11908;50.806;4.424;2023-06-10T15:12:47;30.90;68.50
23471;DHT22;11908;50.806;4.424;2023-06-10T15:15:12;30.60;71.30
23471;DHT22;11908;50.806;4.424;2023-06-10T15:17:39;30.60;70.60
23471;DHT22;11908;50.806;4.424;2023-06-10T15:20:05;30.30;71.00
23471;DHT22;11908;50.806;4.424;2023-06-10T15:22:31;30.40;71.10
23471;DHT22;11908;50.806;4.424;2023-06-10T15:24:56;30.50;71.80
23471;DHT22;11908;50.806;4.424;2023-06-10T15:27:23;30.30;69.70
23471;DHT22;11908;50.806;4.424;2023-06-10T15:29:48;30.30;71.40
23471;DHT22;11908;50.806;4.424;2023-06-10T15:32:14;30.20;71.30
23471;DHT22;11908;50.806;4.424;2023-06-10T15:34:40;30.20;71.20
23471;DHT22;11908;50.806;4.424;2023-06-10T15:37:05;30.10;72.10
23471;DHT22;11908;50.806;4.424;2023-06-10T15:39:31;30.10;71.90
23471;DHT22;11908;50.806;4.424;2023-06-10T15:41:57;30.10;72.40
23471;DHT22;11908;50.806;4.424;2023-06-10T15:44:23;30.10;73.90
23471;DHT22;11908;50.806;4.424;2023-06-10T15:46:48;30.10;71.80
23471;DHT22;11908;50.806;4.424;2023-06-10T15:49:15;30.20;74.80